Time;durP1;ratioP1;P1;durP2;ratioP2;P2;SDS_P1;SDS_P2;PMS_P1;PMS_P2;Temp;Humidity;BMP_temperature;BMP_pressure;BME280_temperature;BME280_humidity;BME280_pressure;Samples;Min_cycle;Max_cycle;Signal;HPM_P1;HPM_P2
2021/12/01 00:00:19;;;;;;;;;3.25;1.25;;;;;;;;5072701;28;49787;-70
2021/12/01 00:02:45;;;;;;;;;1.00;1.00;;;;;;;;5073069;28;49776;-69
2021/12/01 00:05:11;;;;;;;;;1.25;1.25;;;;;;;;5070266;28;49793;-71
2021/12/01 00:07:36;;;;;;;;;2.00;1.25;;;;;;;;5072655;28;49704;-71
2021/12/01 00:10:06;;;;;;;;;1.50;1.00;;;;;;;;5072722;28;49724;-67
2021/12/01 00:12:31;;;;;;;;;2.00;2.00;;;;;;;;5073189;28;50055;-66
2021/12/01 00:14:56;;;;;;;;;1.75;1.75;;;;;;;;5072453;28;50584;-66
2021/12/01 00:17:22;;;;;;;;;4.25;3.00;;;;;;;;5072514;28;49657;-66
2021/12/01 00:19:47;;;;;;;;;2.75;1.75;;;;;;;;5071660;28;49550;-65
2021/12/01 00:22:12;;;;;;;;;2.00;2.00;;;;;;;;5072971;28;49754;-67
2021/12/01 00:24:37;;;;;;;;;2.75;2.00;;;;;;;;5072333;28;50603;-72
2021/12/01 00:27:03;;;;;;;;;2.00;2.00;;;;;;;;5072310;28;49754;-72
2021/12/01 00:29:28;;;;;;;;;3.00;3.00;;;;;;;;5070895;28;49978;-72
2021/12/01 00:31:53;;;;;;;;;2.50;2.50;;;;;;;;5072823;28;50190;-72
2021/12/01 00:34:19;;;;;;;;;3.00;3.00;;;;;;;;5071865;28;50570;-70
2021/12/01 00:36:44;;;;;;;;;3.50;3.00;;;;;;;;5070852;28;49773;-68
2021/12/01 00:39:09;;;;;;;;;4.00;2.75;;;;;;;;5072198;28;49784;-70
2021/12/01 00:41:34;;;;;;;;;4.75;4.00;;;;;;;;5072865;28;49849;-66
2021/12/01 00:44:00;;;;;;;;;4.00;3.50;;;;;;;;5071965;28;49988;-67
2021/12/01 00:46:37;;;;;;;;;4.00;4.00;;;;;;;;5070727;28;49899;-67
2021/12/01 00:49:03;;;;;;;;;4.25;2.75;;;;;;;;5070177;28;49810;-65
2021/12/01 00:51:28;;;;;;;;;4.00;4.00;;;;;;;;5071941;28;49588;-63
2021/12/01 00:53:53;;;;;;;;;6.75;4.75;;;;;;;;5071721;28;50624;-65
2021/12/01 00:56:18;;;;;;;;;5.25;4.00;;;;;;;;5071794;28;49665;-68
2021/12/01 00:58:44;;;;;;;;;5.25;3.75;;;;;;;;5072240;28;49619;-67
2021/12/01 01:01:09;;;;;;;;;7.00;4.25;;;;;;;;5071609;28;49509;-68
2021/12/01 01:03:35;;;;;;;;;3.25;3.25;;;;;;;;5070898;28;49730;-66
2021/12/01 01:06:00;;;;;;;;;7.00;4.00;;;;;;;;5071437;28;50087;-68
2021/12/01 01:08:25;;;;;;;;;4.00;4.00;;;;;;;;5071881;28;49664;-68
2021/12/01 01:16:29;;;;;;;;;9.00;7.50;;;;;;;;5048391;28;49837;-67
2021/12/01 01:18:58;;;;;;;;;2.75;2.75;;;;;;;;5048190;28;49635;-67
2021/12/01 01:21:25;;;;;;;;;5.50;5.50;;;;;;;;5059281;28;50068;-66
2021/12/01 01:23:51;;;;;;;;;5.50;3.00;;;;;;;;5068703;28;51705;-67
2021/12/01 01:26:17;;;;;;;;;3.00;3.00;;;;;;;;5069898;28;49668;-65
2021/12/01 01:28:43;;;;;;;;;2.00;2.00;;;;;;;;5070082;28;49792;-67
2021/12/01 01:31:08;;;;;;;;;3.50;2.00;;;;;;;;5070036;28;49680;-66
2021/12/01 01:33:34;;;;;;;;;3.00;2.00;;;;;;;;5069800;28;50750;-67
2021/12/01 01:35:59;;;;;;;;;1.75;1.75;;;;;;;;5069417;28;49744;-67
2021/12/01 01:38:24;;;;;;;;;2.00;2.00;;;;;;;;5069704;28;49552;-65
2021/12/01 01:40:50;;;;;;;;;1.00;1.00;;;;;;;;5070004;28;49734;-66
2021/12/01 01:43:15;;;;;;;;;1.00;1.00;;;;;;;;5069454;28;50481;-66
2021/12/01 01:45:40;;;;;;;;;3.00;1.00;;;;;;;;5070071;28;49860;-65
2021/12/01 01:48:10;;;;;;;;;2.75;2.75;;;;;;;;5069809;28;49724;-66
2021/12/01 01:50:37;;;;;;;;;1.00;1.00;;;;;;;;5069717;28;49934;-65
2021/12/01 01:53:07;;;;;;;;;1.50;1.50;;;;;;;;5069374;28;50469;-66
2021/12/01 01:55:32;;;;;;;;;1.00;1.00;;;;;;;;5069279;28;49570;-66
2021/12/01 01:57:57;;;;;;;;;2.00;2.00;;;;;;;;5069386;28;50050;-67
2021/12/01 02:00:22;;;;;;;;;2.00;2.00;;;;;;;;5069674;28;49757;-67
2021/12/01 02:02:48;;;;;;;;;1.50;1.50;;;;;;;;5069106;28;51058;-65
2021/12/01 02:05:13;;;;;;;;;3.25;2.25;;;;;;;;5069739;28;49924;-67
2021/12/01 02:07:39;;;;;;;;;1.50;1.00;;;;;;;;5069664;28;49736;-67
2021/12/01 02:10:04;;;;;;;;;1.75;1.75;;;;;;;;5069527;28;49801;-66
2021/12/01 02:12:30;;;;;;;;;3.00;3.00;;;;;;;;5069210;28;49879;-67
2021/12/01 02:14:55;;;;;;;;;1.00;1.00;;;;;;;;5068274;28;49833;-71
2021/12/01 02:17:20;;;;;;;;;2.50;1.75;;;;;;;;5069276;28;49973;-69
2021/12/01 02:19:46;;;;;;;;;0.75;0.75;;;;;;;;5069133;28;49605;-70
2021/12/01 02:24:23;;;;;;;;;1.50;1.00;;;;;;;;5063928;28;49671;-71
2021/12/01 02:26:49;;;;;;;;;1.00;1.00;;;;;;;;5063854;28;49596;-67
2021/12/01 02:29:17;;;;;;;;;0.50;0.50;;;;;;;;5064259;28;49698;-72
2021/12/01 02:31:44;;;;;;;;;0.00;0.00;;;;;;;;5063784;28;50549;-71
2021/12/01 02:34:14;;;;;;;;;1.50;0.00;;;;;;;;5063378;28;49697;-68
2021/12/01 02:36:39;;;;;;;;;0.75;0.00;;;;;;;;5063788;28;49667;-70
2021/12/01 02:39:08;;;;;;;;;2.00;1.00;;;;;;;;5063936;28;49582;-69
2021/12/01 02:41:33;;;;;;;;;1.00;1.00;;;;;;;;5063701;28;49849;-71
2021/12/01 02:44:00;;;;;;;;;0.00;0.00;;;;;;;;5063780;28;49687;-70
2021/12/01 02:46:26;;;;;;;;;0.75;0.75;;;;;;;;5063994;28;49965;-68
2021/12/01 02:48:52;;;;;;;;;1.00;1.00;;;;;;;;5064146;28;49661;-69
2021/12/01 02:51:19;;;;;;;;;1.50;1.50;;;;;;;;5063238;28;50286;-70
2021/12/01 02:53:44;;;;;;;;;3.50;1.75;;;;;;;;5063524;28;49651;-69
2021/12/01 02:56:10;;;;;;;;;1.75;1.75;;;;;;;;5063541;28;49558;-66
2021/12/01 02:58:43;;;;;;;;;1.00;1.00;;;;;;;;5064023;28;49658;-65
2021/12/01 03:01:12;;;;;;;;;3.00;3.00;;;;;;;;5063456;28;49857;-66
2021/12/01 03:03:40;;;;;;;;;1.00;1.00;;;;;;;;5045332;28;49784;-65
2021/12/01 03:06:06;;;;;;;;;3.00;2.75;;;;;;;;5063281;28;49727;-65
2021/12/01 03:08:33;;;;;;;;;2.75;1.50;;;;;;;;5063580;28;49726;-65
2021/12/01 03:10:58;;;;;;;;;2.00;2.00;;;;;;;;5063129;28;50953;-67
2021/12/01 03:13:24;;;;;;;;;2.50;2.50;;;;;;;;5063255;28;49718;-65
2021/12/01 03:15:49;;;;;;;;;3.00;3.00;;;;;;;;5063986;28;49869;-66
2021/12/01 03:18:15;;;;;;;;;2.25;2.00;;;;;;;;5045329;28;49744;-66
2021/12/01 03:20:40;;;;;;;;;1.00;1.00;;;;;;;;5045219;28;51527;-65
2021/12/01 03:23:06;;;;;;;;;2.00;1.00;;;;;;;;5062914;28;49750;-65
2021/12/01 03:25:32;;;;;;;;;2.00;2.00;;;;;;;;5063067;28;49660;-67
2021/12/01 03:27:57;;;;;;;;;0.00;0.00;;;;;;;;5063856;28;50036;-67
2021/12/01 03:30:22;;;;;;;;;1.75;0.50;;;;;;;;5062994;28;49805;-65
2021/12/01 03:32:47;;;;;;;;;0.75;0.75;;;;;;;;5063470;28;49825;-66
2021/12/01 03:35:14;;;;;;;;;1.00;1.00;;;;;;;;5052353;28;49706;-67
2021/12/01 03:37:40;;;;;;;;;1.00;1.00;;;;;;;;5015028;28;49952;-67
2021/12/01 03:40:06;;;;;;;;;2.00;2.00;;;;;;;;5049848;28;51311;-66
2021/12/01 03:42:32;;;;;;;;;0.00;0.00;;;;;;;;5049462;28;49638;-66
2021/12/01 03:44:57;;;;;;;;;0.75;0.75;;;;;;;;5049684;28;49683;-71
2021/12/01 03:47:23;;;;;;;;;1.00;1.00;;;;;;;;5031640;28;49967;-65
2021/12/01 03:49:48;;;;;;;;;1.00;1.00;;;;;;;;5049221;28;49697;-67
2021/12/01 03:52:16;;;;;;;;;2.00;1.00;;;;;;;;5049322;28;49907;-71
2021/12/01 03:54:42;;;;;;;;;1.75;1.00;;;;;;;;5049762;28;49814;-66
2021/12/01 03:57:07;;;;;;;;;0.00;0.00;;;;;;;;5049764;28;49872;-65
2021/12/01 03:59:32;;;;;;;;;0.00;0.00;;;;;;;;5049630;28;49847;-65
2021/12/01 04:01:57;;;;;;;;;0.00;0.00;;;;;;;;5049443;28;49964;-65
2021/12/01 04:04:23;;;;;;;;;1.00;1.00;;;;;;;;5049411;28;49645;-65
2021/12/01 04:06:48;;;;;;;;;0.50;0.50;;;;;;;;5049821;28;50157;-65
2021/12/01 04:09:13;;;;;;;;;1.00;1.00;;;;;;;;5049138;28;49770;-66
2021/12/01 04:11:38;;;;;;;;;1.00;1.00;;;;;;;;5049283;28;49908;-66
2021/12/01 04:14:03;;;;;;;;;0.00;0.00;;;;;;;;5049246;28;49762;-66
2021/12/01 04:16:29;;;;;;;;;1.00;1.00;;;;;;;;5049656;28;49868;-66
2021/12/01 04:18:54;;;;;;;;;0.75;0.75;;;;;;;;5049034;28;50785;-66
2021/12/01 04:21:20;;;;;;;;;2.00;0.25;;;;;;;;5049257;28;49798;-65
2021/12/01 04:23:46;;;;;;;;;0.00;0.00;;;;;;;;5049213;28;49636;-67
2021/12/01 04:26:15;;;;;;;;;2.00;2.00;;;;;;;;5049390;28;49546;-67
2021/12/01 04:28:40;;;;;;;;;1.00;1.00;;;;;;;;5048963;28;50330;-66
2021/12/01 04:31:05;;;;;;;;;0.00;0.00;;;;;;;;5049146;28;49504;-66
2021/12/01 04:33:30;;;;;;;;;0.00;0.00;;;;;;;;5049228;28;49926;-66
2021/12/01 04:35:56;;;;;;;;;0.75;0.75;;;;;;;;5049109;28;49840;-67
2021/12/01 04:38:21;;;;;;;;;0.50;0.00;;;;;;;;5049029;28;49907;-66
2021/12/01 04:40:46;;;;;;;;;0.00;0.00;;;;;;;;5049148;28;49781;-66
2021/12/01 04:43:12;;;;;;;;;0.00;0.00;;;;;;;;5049137;28;49964;-66
2021/12/01 04:45:41;;;;;;;;;0.25;0.25;;;;;;;;5048170;28;49863;-66
2021/12/01 04:48:07;;;;;;;;;1.00;1.00;;;;;;;;5048146;28;49695;-69
2021/12/01 04:50:32;;;;;;;;;1.00;1.00;;;;;;;;5030400;28;49885;-67
2021/12/01 04:52:58;;;;;;;;;1.00;1.00;;;;;;;;5048767;28;49782;-67
2021/12/01 04:55:23;;;;;;;;;0.50;0.50;;;;;;;;5049109;28;49860;-71
2021/12/01 04:57:48;;;;;;;;;0.00;0.00;;;;;;;;5048795;28;49775;-72
2021/12/01 05:00:17;;;;;;;;;1.00;1.00;;;;;;;;5048762;28;49646;-71
2021/12/01 05:02:43;;;;;;;;;0.50;0.50;;;;;;;;5048795;28;49589;-72
2021/12/01 05:05:08;;;;;;;;;0.50;0.25;;;;;;;;5048572;28;49834;-67
2021/12/01 05:07:33;;;;;;;;;1.50;1.00;;;;;;;;5048644;28;50391;-66
2021/12/01 05:09:59;;;;;;;;;1.00;1.00;;;;;;;;5048640;28;49902;-67
2021/12/01 05:12:24;;;;;;;;;1.00;1.00;;;;;;;;5048855;28;49847;-67
2021/12/01 05:14:50;;;;;;;;;0.00;0.00;;;;;;;;5048885;28;49639;-67
2021/12/01 05:17:15;;;;;;;;;0.00;0.00;;;;;;;;5048462;28;49733;-67
2021/12/01 05:19:40;;;;;;;;;0.50;0.50;;;;;;;;5047794;28;49807;-67
2021/12/01 05:22:06;;;;;;;;;0.00;0.00;;;;;;;;5048403;28;49797;-67
2021/12/01 05:24:31;;;;;;;;;0.00;0.00;;;;;;;;5048752;28;49694;-67
2021/12/01 05:26:57;;;;;;;;;1.50;1.00;;;;;;;;5048268;28;50374;-66
2021/12/01 05:29:23;;;;;;;;;0.00;0.00;;;;;;;;5048485;28;49779;-67
2021/12/01 05:31:49;;;;;;;;;0.00;0.00;;;;;;;;5048434;28;49907;-71
2021/12/01 05:34:14;;;;;;;;;0.00;0.00;;;;;;;;5048111;28;49984;-66
2021/12/01 05:36:39;;;;;;;;;0.00;0.00;;;;;;;;5048154;28;50889;-67
2021/12/01 05:39:05;;;;;;;;;0.00;0.00;;;;;;;;5048383;28;49731;-68
2021/12/01 05:41:30;;;;;;;;;1.00;0.00;;;;;;;;5048376;28;49654;-68
2021/12/01 05:43:55;;;;;;;;;0.00;0.00;;;;;;;;5048472;28;49817;-68
2021/12/01 05:46:20;;;;;;;;;0.00;0.00;;;;;;;;5048145;28;49640;-67
2021/12/01 05:48:46;;;;;;;;;0.00;0.00;;;;;;;;5047955;28;49723;-66
2021/12/01 05:51:11;;;;;;;;;0.00;0.00;;;;;;;;5048424;28;49729;-66
2021/12/01 05:53:37;;;;;;;;;0.00;0.00;;;;;;;;5047926;28;50040;-65
2021/12/01 05:56:03;;;;;;;;;0.00;0.00;;;;;;;;5048009;28;49803;-72
2021/12/01 05:58:28;;;;;;;;;0.00;0.00;;;;;;;;5047839;28;49778;-66
2021/12/01 06:00:54;;;;;;;;;0.00;0.00;;;;;;;;5048167;28;49724;-67
2021/12/01 06:03:19;;;;;;;;;0.00;0.00;;;;;;;;5047805;28;49608;-69
2021/12/01 06:05:44;;;;;;;;;0.50;0.00;;;;;;;;5047577;28;49702;-68
2021/12/01 06:08:10;;;;;;;;;0.00;0.00;;;;;;;;5048048;28;50075;-71
2021/12/01 06:10:36;;;;;;;;;0.00;0.00;;;;;;;;5047967;28;49675;-71
2021/12/01 06:13:01;;;;;;;;;1.00;0.00;;;;;;;;5048026;28;49987;-67
2021/12/01 06:15:27;;;;;;;;;1.00;1.00;;;;;;;;5050396;28;49767;-65
2021/12/01 06:17:52;;;;;;;;;1.00;1.00;;;;;;;;5051460;28;49630;-65
2021/12/01 06:20:17;;;;;;;;;0.00;0.00;;;;;;;;5057597;28;50112;-66
2021/12/01 06:22:43;;;;;;;;;0.00;0.00;;;;;;;;5049655;28;49691;-66
2021/12/01 06:25:09;;;;;;;;;1.00;0.00;;;;;;;;5047497;28;49747;-65
2021/12/01 06:27:34;;;;;;;;;0.00;0.00;;;;;;;;5048495;28;49730;-66
2021/12/01 06:29:59;;;;;;;;;0.00;0.00;;;;;;;;5047618;28;49577;-68
2021/12/01 06:32:25;;;;;;;;;0.50;0.50;;;;;;;;5047565;28;49905;-68
2021/12/01 06:34:50;;;;;;;;;0.00;0.00;;;;;;;;5028139;28;50010;-67
2021/12/01 06:37:15;;;;;;;;;0.00;0.00;;;;;;;;5047285;28;49623;-73
2021/12/01 06:39:41;;;;;;;;;0.00;0.00;;;;;;;;5047137;28;49674;-71
2021/12/01 06:42:06;;;;;;;;;1.00;1.00;;;;;;;;5047527;28;49627;-76
2021/12/01 06:44:33;;;;;;;;;0.00;0.00;;;;;;;;5048463;28;50401;-77
2021/12/01 06:46:59;;;;;;;;;0.00;0.00;;;;;;;;5047349;28;49580;-74
2021/12/01 06:49:24;;;;;;;;;0.00;0.00;;;;;;;;5047090;28;49763;-76
2021/12/01 06:51:49;;;;;;;;;0.00;0.00;;;;;;;;5047600;28;49844;-74
2021/12/01 06:54:14;;;;;;;;;0.00;0.00;;;;;;;;5046927;28;50492;-77
2021/12/01 06:56:39;;;;;;;;;0.00;0.00;;;;;;;;5046944;28;49702;-76
2021/12/01 06:59:05;;;;;;;;;0.00;0.00;;;;;;;;5047082;28;49642;-69
2021/12/01 07:01:30;;;;;;;;;0.00;0.00;;;;;;;;5047230;28;49983;-68
2021/12/01 07:03:55;;;;;;;;;0.00;0.00;;;;;;;;5046880;28;49959;-68
2021/12/01 07:06:20;;;;;;;;;0.00;0.00;;;;;;;;5046859;28;49603;-69
2021/12/01 07:08:45;;;;;;;;;0.00;0.00;;;;;;;;5046952;28;49801;-68
2021/12/01 07:11:11;;;;;;;;;0.00;0.00;;;;;;;;5050429;28;49628;-69
2021/12/01 07:13:36;;;;;;;;;0.00;0.00;;;;;;;;5049553;28;50425;-69
2021/12/01 07:16:02;;;;;;;;;0.00;0.00;;;;;;;;5049930;28;49801;-68
2021/12/01 07:18:27;;;;;;;;;0.00;0.00;;;;;;;;5050107;28;49926;-69
2021/12/01 07:20:52;;;;;;;;;0.00;0.00;;;;;;;;5049953;28;49715;-69
2021/12/01 07:23:18;;;;;;;;;0.00;0.00;;;;;;;;5049427;28;49753;-69
2021/12/01 07:25:43;;;;;;;;;0.00;0.00;;;;;;;;5050019;28;49649;-69
2021/12/01 07:28:08;;;;;;;;;0.00;0.00;;;;;;;;5050257;28;50001;-69
2021/12/01 07:30:35;;;;;;;;;1.00;0.00;;;;;;;;5050017;28;49715;-69
2021/12/01 07:33:00;;;;;;;;;1.00;0.00;;;;;;;;5049970;28;50037;-69
2021/12/01 07:35:25;;;;;;;;;2.00;1.00;;;;;;;;5049599;28;50173;-69
2021/12/01 07:37:51;;;;;;;;;1.75;0.00;;;;;;;;5049976;28;49607;-58
2021/12/01 07:40:16;;;;;;;;;0.00;0.00;;;;;;;;5049881;28;49481;-58
2021/12/01 07:42:41;;;;;;;;;0.00;0.00;;;;;;;;5049612;28;49851;-61
2021/12/01 07:45:07;;;;;;;;;0.00;0.00;;;;;;;;5050008;28;49808;-62
2021/12/01 07:47:33;;;;;;;;;0.00;0.00;;;;;;;;5050017;28;49787;-72
2021/12/01 07:49:58;;;;;;;;;0.25;0.25;;;;;;;;5049597;28;49606;-69
2021/12/01 07:52:23;;;;;;;;;0.00;0.00;;;;;;;;5049397;28;49728;-72
2021/12/01 07:54:49;;;;;;;;;1.25;0.00;;;;;;;;5049619;28;49818;-73
2021/12/01 07:57:14;;;;;;;;;0.00;0.00;;;;;;;;5049860;28;49606;-72
2021/12/01 07:59:39;;;;;;;;;0.00;0.00;;;;;;;;5049677;28;49747;-68
2021/12/01 08:02:04;;;;;;;;;0.00;0.00;;;;;;;;5049474;28;49718;-72
2021/12/01 08:04:30;;;;;;;;;0.00;0.00;;;;;;;;5058036;27;49730;-70
2021/12/01 08:06:56;;;;;;;;;0.00;0.00;;;;;;;;5048828;27;49617;-72
2021/12/01 08:09:21;;;;;;;;;0.00;0.00;;;;;;;;5049884;28;49975;-77
2021/12/01 08:11:47;;;;;;;;;0.75;0.00;;;;;;;;5049202;28;49550;-70
2021/12/01 08:14:12;;;;;;;;;1.00;0.00;;;;;;;;5049254;28;49614;-69
2021/12/01 08:16:38;;;;;;;;;0.00;0.00;;;;;;;;5049897;28;49732;-71
2021/12/01 08:19:04;;;;;;;;;0.00;0.00;;;;;;;;5053919;28;49873;-72
2021/12/01 08:21:29;;;;;;;;;0.00;0.00;;;;;;;;5050946;28;50575;-76
2021/12/01 08:23:55;;;;;;;;;0.00;0.00;;;;;;;;5049427;28;49632;-75
2021/12/01 08:26:20;;;;;;;;;0.00;0.00;;;;;;;;5030510;28;50389;-71
2021/12/01 08:28:47;;;;;;;;;0.00;0.00;;;;;;;;5052035;28;49823;-63
2021/12/01 08:31:13;;;;;;;;;0.00;0.00;;;;;;;;5064989;28;50522;-63
2021/12/01 08:33:38;;;;;;;;;0.00;0.00;;;;;;;;5057375;28;49969;-66
2021/12/01 08:36:03;;;;;;;;;0.25;0.00;;;;;;;;5049416;27;49801;-68
2021/12/01 08:38:29;;;;;;;;;0.00;0.00;;;;;;;;5047499;28;49825;-66
2021/12/01 08:40:54;;;;;;;;;0.00;0.00;;;;;;;;5047595;28;50547;-63
2021/12/01 08:43:19;;;;;;;;;1.00;0.00;;;;;;;;5030266;27;49795;-70
2021/12/01 08:45:44;;;;;;;;;0.00;0.00;;;;;;;;5050859;27;50113;-67
2021/12/01 08:48:09;;;;;;;;;0.75;0.75;;;;;;;;5068156;28;50010;-70
2021/12/01 08:50:35;;;;;;;;;1.00;1.00;;;;;;;;5068783;28;50463;-71
2021/12/01 08:53:00;;;;;;;;;0.50;0.00;;;;;;;;5068793;28;49724;-69
2021/12/01 08:55:26;;;;;;;;;1.00;0.00;;;;;;;;5069063;28;49913;-70
2021/12/01 08:57:51;;;;;;;;;0.00;0.00;;;;;;;;5054660;28;49917;-69
2021/12/01 09:00:17;;;;;;;;;2.00;0.00;;;;;;;;5060094;28;50441;-68
2021/12/01 09:02:42;;;;;;;;;0.00;0.00;;;;;;;;5060096;28;49545;-70
2021/12/01 09:05:08;;;;;;;;;0.00;0.00;;;;;;;;5047564;28;49814;-71
2021/12/01 09:07:33;;;;;;;;;0.00;0.00;;;;;;;;5066530;28;50019;-76
2021/12/01 09:09:59;;;;;;;;;0.00;0.00;;;;;;;;5064728;28;49528;-73
2021/12/01 09:12:24;;;;;;;;;0.00;0.00;;;;;;;;5048443;28;49732;-71
2021/12/01 09:14:51;;;;;;;;;0.00;0.00;;;;;;;;5048628;27;49720;-64
2021/12/01 09:17:17;;;;;;;;;0.00;0.00;;;;;;;;5048829;27;49977;-71
2021/12/01 09:19:42;;;;;;;;;0.00;0.00;;;;;;;;5048028;27;50619;-67
2021/12/01 09:22:07;;;;;;;;;1.00;1.00;;;;;;;;5051981;27;49836;-70
2021/12/01 09:24:33;;;;;;;;;0.00;0.00;;;;;;;;5068846;28;49734;-70
2021/12/01 09:26:58;;;;;;;;;0.00;0.00;;;;;;;;5068882;28;49603;-69
2021/12/01 09:29:27;;;;;;;;;1.75;0.00;;;;;;;;5059489;28;50691;-71
2021/12/01 09:31:52;;;;;;;;;0.00;0.00;;;;;;;;5047311;28;49945;-70
2021/12/01 09:34:17;;;;;;;;;0.00;0.00;;;;;;;;5047148;28;49933;-65
2021/12/01 09:36:42;;;;;;;;;1.00;0.00;;;;;;;;5029420;28;50072;-67
2021/12/01 09:39:08;;;;;;;;;0.00;0.00;;;;;;;;5047073;28;49847;-66
2021/12/01 09:41:33;;;;;;;;;0.00;0.00;;;;;;;;5047484;28;49846;-67
2021/12/01 09:43:58;;;;;;;;;0.00;0.00;;;;;;;;5047057;27;50100;-68
2021/12/01 09:46:24;;;;;;;;;0.00;0.00;;;;;;;;5048068;28;49625;-68
2021/12/01 09:48:49;;;;;;;;;1.50;0.00;;;;;;;;5047219;28;49943;-69
2021/12/01 09:51:16;;;;;;;;;2.00;0.50;;;;;;;;5047291;28;50038;-71
2021/12/01 09:53:41;;;;;;;;;0.75;0.00;;;;;;;;5047754;28;49942;-70
2021/12/01 09:56:06;;;;;;;;;0.00;0.00;;;;;;;;5047053;28;49963;-65
2021/12/01 09:58:32;;;;;;;;;0.00;0.00;;;;;;;;5050290;28;50374;-67
2021/12/01 10:01:03;;;;;;;;;0.00;0.00;;;;;;;;5048036;28;49781;-65
2021/12/01 10:03:28;;;;;;;;;0.00;0.00;;;;;;;;5047630;28;49842;-65
2021/12/01 10:06:07;;;;;;;;;0.00;0.00;;;;;;;;5047596;28;49776;-65
2021/12/01 10:08:36;;;;;;;;;0.00;0.00;;;;;;;;5047043;28;49639;-64
2021/12/01 10:11:06;;;;;;;;;0.00;0.00;;;;;;;;5047419;28;49675;-66
2021/12/01 10:13:33;;;;;;;;;0.00;0.00;;;;;;;;5047057;28;49656;-69
2021/12/01 10:16:01;;;;;;;;;0.00;0.00;;;;;;;;5057600;28;49827;-70
2021/12/01 10:18:27;;;;;;;;;1.00;0.00;;;;;;;;5067558;28;50432;-69
2021/12/01 10:20:56;;;;;;;;;1.00;0.75;;;;;;;;5052465;28;49723;-73
2021/12/01 10:23:21;;;;;;;;;0.00;0.00;;;;;;;;5047033;28;49766;-71
2021/12/01 10:25:47;;;;;;;;;1.75;0.00;;;;;;;;5047464;28;49894;-70
2021/12/01 10:28:30;;;;;;;;;1.00;1.00;;;;;;;;5047171;28;50264;-72
2021/12/01 10:30:56;;;;;;;;;0.00;0.00;;;;;;;;5040591;28;49793;-67
2021/12/01 10:33:21;;;;;;;;;0.00;0.00;;;;;;;;5061795;28;49940;-70
2021/12/01 10:35:46;;;;;;;;;0.00;0.00;;;;;;;;5046593;28;49756;-68
2021/12/01 10:38:13;;;;;;;;;0.25;0.25;;;;;;;;5046508;28;49910;-67
2021/12/01 10:40:39;;;;;;;;;0.00;0.00;;;;;;;;5046634;27;49687;-69
2021/12/01 10:43:04;;;;;;;;;0.25;0.00;;;;;;;;5046468;28;50009;-70
2021/12/01 10:45:40;;;;;;;;;0.25;0.00;;;;;;;;5049157;28;49646;-67
2021/12/01 10:48:06;;;;;;;;;0.00;0.00;;;;;;;;5050319;27;49861;-66
2021/12/01 10:50:33;;;;;;;;;0.00;0.00;;;;;;;;5049965;28;49702;-65
2021/12/01 10:53:04;;;;;;;;;0.50;0.50;;;;;;;;5050256;28;49689;-65
2021/12/01 10:55:30;;;;;;;;;1.75;1.00;;;;;;;;5050445;28;49859;-68
2021/12/01 10:57:58;;;;;;;;;2.00;2.00;;;;;;;;5050105;27;50243;-67
2021/12/01 11:00:26;;;;;;;;;1.00;1.00;;;;;;;;5050136;28;49655;-65
2021/12/01 11:02:52;;;;;;;;;1.00;1.00;;;;;;;;5049506;27;49697;-65
2021/12/01 11:05:24;;;;;;;;;1.50;1.50;;;;;;;;5049733;28;49998;-65
2021/12/01 11:07:50;;;;;;;;;0.25;0.25;;;;;;;;5049056;28;50567;-68
2021/12/01 11:10:19;;;;;;;;;2.75;2.00;;;;;;;;5050006;28;49616;-69
2021/12/01 11:12:58;;;;;;;;;1.00;1.00;;;;;;;;5049165;28;49992;-66
2021/12/01 11:15:27;;;;;;;;;2.00;2.00;;;;;;;;5050162;28;49631;-69
2021/12/01 11:17:54;;;;;;;;;2.75;0.50;;;;;;;;5049873;28;49629;-70
2021/12/01 11:20:38;;;;;;;;;1.75;1.75;;;;;;;;5049919;28;50048;-66
2021/12/01 11:23:10;;;;;;;;;1.00;1.00;;;;;;;;5049674;28;49682;-71
2021/12/01 11:25:37;;;;;;;;;3.25;2.00;;;;;;;;5049900;28;49732;-68
2021/12/01 11:28:08;;;;;;;;;3.75;3.00;;;;;;;;5049600;27;50453;-66
2021/12/01 11:30:33;;;;;;;;;2.25;1.50;;;;;;;;5048791;28;49622;-67
2021/12/01 11:32:59;;;;;;;;;1.75;1.00;;;;;;;;5060987;27;49763;-69
2021/12/01 11:35:24;;;;;;;;;4.00;2.00;;;;;;;;5049310;28;49879;-73
2021/12/01 11:37:56;;;;;;;;;2.00;1.00;;;;;;;;5049027;27;50628;-65
2021/12/01 11:40:22;;;;;;;;;1.00;1.00;;;;;;;;5035004;27;49778;-65
2021/12/01 11:42:47;;;;;;;;;2.00;0.75;;;;;;;;5049562;28;49696;-70
2021/12/01 11:45:13;;;;;;;;;3.00;1.50;;;;;;;;5048606;28;49656;-66
2021/12/01 11:47:45;;;;;;;;;0.75;0.75;;;;;;;;5049573;28;50482;-68
2021/12/01 11:50:12;;;;;;;;;3.00;0.75;;;;;;;;5031226;28;49867;-65
2021/12/01 11:52:41;;;;;;;;;1.75;1.00;;;;;;;;5049952;28;49775;-66
2021/12/01 11:55:07;;;;;;;;;3.25;2.50;;;;;;;;5049348;28;49697;-69
2021/12/01 11:57:39;;;;;;;;;1.50;1.50;;;;;;;;5049076;28;50368;-68
2021/12/01 12:00:05;;;;;;;;;3.00;3.00;;;;;;;;5031084;28;49829;-69
2021/12/01 12:02:30;;;;;;;;;1.50;1.25;;;;;;;;5048617;28;49902;-69
2021/12/01 12:04:57;;;;;;;;;2.00;1.00;;;;;;;;5049694;28;49787;-70
2021/12/01 12:07:25;;;;;;;;;2.50;2.50;;;;;;;;5048722;28;50390;-67
2021/12/01 12:10:04;;;;;;;;;3.00;1.00;;;;;;;;5048992;28;49958;-68
2021/12/01 12:12:42;;;;;;;;;3.50;3.00;;;;;;;;5049253;28;49733;-71
2021/12/01 12:15:07;;;;;;;;;1.75;1.75;;;;;;;;5049288;28;49596;-67
2021/12/01 12:17:35;;;;;;;;;1.00;1.00;;;;;;;;5048439;28;50374;-67
2021/12/01 12:20:20;;;;;;;;;2.00;1.25;;;;;;;;5049259;28;49910;-66
2021/12/01 12:22:46;;;;;;;;;2.00;1.75;;;;;;;;5030887;28;49667;-66
2021/12/01 12:25:31;;;;;;;;;4.50;1.75;;;;;;;;5049475;28;49773;-66
2021/12/01 12:27:57;;;;;;;;;2.25;2.25;;;;;;;;5048253;28;50948;-67
2021/12/01 12:30:28;;;;;;;;;2.25;1.25;;;;;;;;5049085;28;49718;-66
2021/12/01 12:33:13;;;;;;;;;2.00;2.00;;;;;;;;5049861;28;49866;-68
2021/12/01 12:35:43;;;;;;;;;1.50;1.50;;;;;;;;5048719;28;49886;-66
2021/12/01 12:38:08;;;;;;;;;1.25;1.00;;;;;;;;5048030;28;50467;-70
2021/12/01 12:40:33;;;;;;;;;2.50;2.50;;;;;;;;5030972;28;50022;-68
2021/12/01 12:43:04;;;;;;;;;1.00;1.00;;;;;;;;5066363;27;49763;-70
2021/12/01 12:45:29;;;;;;;;;0.50;0.50;;;;;;;;5067908;28;50504;-68
2021/12/01 12:47:54;;;;;;;;;3.75;2.50;;;;;;;;5048668;28;50704;-67
2021/12/01 12:50:24;;;;;;;;;0.00;0.00;;;;;;;;5048612;28;49653;-66
2021/12/01 12:52:51;;;;;;;;;3.50;2.00;;;;;;;;5049227;28;49661;-65
2021/12/01 12:55:19;;;;;;;;;3.00;3.00;;;;;;;;5030753;28;49630;-67
2021/12/01 12:57:47;;;;;;;;;11.25;7.75;;;;;;;;5048635;28;49998;-68
2021/12/01 13:00:24;;;;;;;;;9.50;6.00;;;;;;;;5048583;28;49583;-76
2021/12/01 13:02:50;;;;;;;;;4.00;4.00;;;;;;;;5030928;28;49602;-73
2021/12/01 13:05:28;;;;;;;;;7.50;4.50;;;;;;;;5048702;28;49617;-74
2021/12/01 13:07:55;;;;;;;;;3.75;2.75;;;;;;;;5047451;28;49656;-72
2021/12/01 13:10:36;;;;;;;;;3.75;3.75;;;;;;;;5030777;27;49963;-77
2021/12/01 13:13:04;;;;;;;;;3.00;2.00;;;;;;;;5049926;28;49618;-71
2021/12/01 13:15:29;;;;;;;;;2.00;2.00;;;;;;;;5050245;28;49913;-76
2021/12/01 13:17:57;;;;;;;;;1.25;1.25;;;;;;;;5049872;28;49816;-73
2021/12/01 13:20:29;;;;;;;;;4.25;3.00;;;;;;;;5049941;28;49797;-67
2021/12/01 13:23:04;;;;;;;;;3.00;3.00;;;;;;;;5048095;28;50047;-75
2021/12/01 13:25:30;;;;;;;;;8.50;3.75;;;;;;;;5048788;28;49701;-66
2021/12/01 13:27:55;;;;;;;;;4.00;4.00;;;;;;;;5048133;28;52209;-69
2021/12/01 13:30:21;;;;;;;;;2.00;2.00;;;;;;;;5048294;28;49740;-65
2021/12/01 13:33:04;;;;;;;;;3.00;3.00;;;;;;;;5048240;28;49575;-68
2021/12/01 13:35:29;;;;;;;;;3.00;2.00;;;;;;;;5032277;27;49985;-67
2021/12/01 13:37:57;;;;;;;;;2.75;2.00;;;;;;;;5048138;28;50659;-67
2021/12/01 13:40:25;;;;;;;;;3.75;2.00;;;;;;;;5048278;28;49917;-67
2021/12/01 13:42:51;;;;;;;;;1.75;1.75;;;;;;;;5048222;28;49701;-67
2021/12/01 13:45:16;;;;;;;;;1.00;1.00;;;;;;;;5048213;28;49606;-67
2021/12/01 13:47:43;;;;;;;;;1.00;1.00;;;;;;;;5047947;28;49761;-67
2021/12/01 13:50:09;;;;;;;;;2.00;1.00;;;;;;;;5029978;27;49926;-70
2021/12/01 13:52:36;;;;;;;;;3.00;2.00;;;;;;;;5045087;28;49849;-67
2021/12/01 13:55:16;;;;;;;;;0.75;0.75;;;;;;;;5034937;28;49682;-67
2021/12/01 13:57:45;;;;;;;;;0.00;0.00;;;;;;;;5047354;28;49983;-66
2021/12/01 14:00:11;;;;;;;;;1.00;1.00;;;;;;;;5029484;28;50181;-66
2021/12/01 14:02:37;;;;;;;;;2.75;1.00;;;;;;;;5047707;28;49791;-67
2021/12/01 14:05:04;;;;;;;;;1.50;1.00;;;;;;;;5029866;27;49591;-67
2021/12/01 14:07:40;;;;;;;;;3.00;1.00;;;;;;;;5037344;28;51517;-66
2021/12/01 14:10:09;;;;;;;;;1.25;1.25;;;;;;;;5048489;28;49640;-68
2021/12/01 14:12:35;;;;;;;;;2.25;1.50;;;;;;;;5049924;27;49812;-68
2021/12/01 14:15:01;;;;;;;;;1.00;1.00;;;;;;;;5067870;28;49936;-68
2021/12/01 14:17:26;;;;;;;;;2.75;1.75;;;;;;;;5067441;28;50339;-69
2021/12/01 14:19:58;;;;;;;;;1.00;1.00;;;;;;;;5068032;28;49818;-67
2021/12/01 14:22:24;;;;;;;;;3.00;3.00;;;;;;;;5067455;28;49660;-72
2021/12/01 14:24:56;;;;;;;;;3.50;2.00;;;;;;;;5067956;28;49740;-69
2021/12/01 14:27:33;;;;;;;;;1.00;1.00;;;;;;;;5067760;28;50528;-70
2021/12/01 14:29:59;;;;;;;;;3.00;1.75;;;;;;;;5067750;28;49859;-66
2021/12/01 14:32:26;;;;;;;;;2.00;2.00;;;;;;;;5067752;28;49599;-67
2021/12/01 14:34:52;;;;;;;;;2.00;1.00;;;;;;;;5067986;28;49671;-66
2021/12/01 14:37:17;;;;;;;;;0.75;0.75;;;;;;;;5048613;27;51352;-66
2021/12/01 14:39:42;;;;;;;;;2.00;2.00;;;;;;;;5067072;28;49834;-68
2021/12/01 14:42:08;;;;;;;;;1.00;1.00;;;;;;;;5086040;27;49658;-69
2021/12/01 14:44:38;;;;;;;;;1.00;1.00;;;;;;;;5153410;27;49635;-68
2021/12/01 14:47:19;;;;;;;;;2.50;1.00;;;;;;;;5152913;27;50944;-67